Time;durP1;ratioP1;P1;durP2;ratioP2;P2;SDS_P1;SDS_P2;PMS_P1;PMS_P2;Temp;Humidity;BMP_temperature;BMP_pressure;BME280_temperature;BME280_humidity;BME280_pressure;Samples;Min_cycle;Max_cycle;Signal;HPM_P1;HPM_P2
2022/02/05 00:40:59;;;;;;;23.10;13.20;;;;;;;3.09;55.65;100673.91;117310;1181;21851;-56
2022/02/05 00:43:30;;;;;;;20.10;12.30;;;;;;;3.10;55.46;100666.83;117364;1185;23275;-58
2022/02/05 00:45:59;;;;;;;19.60;11.80;;;;;;;3.13;55.73;100666.20;117404;1185;21855;-56
2022/02/05 00:48:27;;;;;;;24.00;12.10;;;;;;;3.15;55.74;100661.05;117327;1184;22903;-56
2022/02/05 00:51:07;;;;;;;20.00;12.00;;;;;;;3.19;55.45;100660.08;117365;1182;21856;-59
2022/02/05 00:53:38;;;;;;;19.20;11.30;;;;;;;3.20;55.53;100658.02;117342;1185;23541;-56
2022/02/05 00:56:13;;;;;;;;;;;;;;;3.20;55.54;100654.40;117349;1185;23512;-55
2022/02/05 00:58:42;;;;;;;19.80;10.90;;;;;;;3.19;55.49;100653.00;117379;1186;22979;-56
2022/02/05 01:01:10;;;;;;;18.20;11.50;;;;;;;3.20;55.46;100653.88;117325;1186;22943;-57
2022/02/05 01:03:38;;;;;;;23.90;11.50;;;;;;;3.20;55.49;100653.02;117327;1185;21848;-58
2022/02/05 01:06:06;;;;;;;19.10;12.50;;;;;;;3.21;55.51;100651.12;117314;1182;21838;-57
2022/02/05 01:08:36;;;;;;;18.00;12.10;;;;;;;3.21;55.53;100648.35;117325;1182;22639;-55
2022/02/05 01:11:04;;;;;;;25.30;12.40;;;;;;;3.20;55.45;100644.51;117368;1185;21892;-58
2022/02/05 01:13:34;;;;;;;19.10;12.10;;;;;;;3.22;55.52;100639.52;117347;1185;21851;-55
2022/02/05 01:16:15;;;;;;;21.70;13.40;;;;;;;3.20;55.55;100629.60;117342;1185;23537;-55
2022/02/05 01:18:44;;;;;;;23.20;12.70;;;;;;;3.21;55.59;100630.84;117353;1185;22908;-55
2022/02/05 01:23:52;;;;;;;21.20;12.50;;;;;;;3.23;55.59;100626.20;117329;1185;21851;-57
2022/02/05 01:26:29;;;;;;;19.60;12.10;;;;;;;3.24;55.47;100620.84;117385;1182;23432;-55
2022/02/05 01:29:14;;;;;;;21.40;12.10;;;;;;;3.25;55.47;100619.48;117369;1186;21860;-57
2022/02/05 01:31:48;;;;;;;17.40;11.20;;;;;;;3.26;55.54;100624.00;117358;1185;23459;-58
2022/02/05 01:34:45;;;;;;;16.00;10.90;;;;;;;3.24;55.47;100626.75;117343;1185;21842;-57
2022/02/05 01:52:00;;;;;;;20.40;11.10;;;;;;;3.07;55.69;100618.40;117357;1183;21860;-57
2022/02/05 01:54:17;;;;;;;23.40;11.50;;;;;;;3.07;55.58;100614.40;117184;1185;21857;-55
2022/02/05 01:56:55;;;;;;;18.00;12.30;;;;;;;3.06;55.61;100611.44;117373;1188;21842;-55
2022/02/05 02:05:08;;;;;;;17.00;11.40;;;;;;;2.99;55.63;100615.09;117441;1183;23554;-55
2022/02/05 02:21:25;;;;;;;14.30;9.40;;;;;;;2.82;55.68;100613.85;117244;1185;23430;-55
2022/02/05 02:29:07;;;;;;;14.60;9.10;;;;;;;2.83;55.77;100619.08;117398;1180;23459;-56
2022/02/05 02:31:40;;;;;;;18.90;10.30;;;;;;;2.81;55.70;100619.38;117347;1185;21919;-55
2022/02/05 02:34:12;;;;;;;17.00;10.30;;;;;;;2.82;55.63;100618.02;117375;1185;22802;-55
2022/02/05 02:37:01;;;;;;;16.70;9.60;;;;;;;2.84;55.70;100620.65;117311;1184;22913;-55
2022/02/05 02:39:39;;;;;;;16.30;10.20;;;;;;;2.82;55.75;100619.04;117268;1185;21845;-58
2022/02/05 02:42:11;;;;;;;15.00;10.00;;;;;;;2.85;55.58;100613.91;117272;1183;23448;-56
2022/02/05 02:44:39;;;;;;;15.90;10.20;;;;;;;2.83;55.81;100615.27;117334;1185;22624;-55
2022/02/05 02:47:07;;;;;;;15.50;9.90;;;;;;;2.82;55.64;100615.94;117295;1183;21919;-55
2022/02/05 02:57:53;;;;;;;15.60;9.90;;;;;;;2.71;55.75;100607.52;117296;1185;21858;-56
2022/02/05 03:00:21;;;;;;;16.40;10.50;;;;;;;2.71;55.81;100608.20;117231;1185;22967;-58
2022/02/05 03:02:50;;;;;;;15.20;9.70;;;;;;;2.71;55.77;100613.23;117161;1184;22912;-56
2022/02/05 03:05:18;;;;;;;14.80;9.70;;;;;;;2.72;55.59;100615.16;117162;1182;21855;-59
2022/02/05 03:07:46;;;;;;;15.60;9.80;;;;;;;2.72;55.53;100611.34;117367;1185;21865;-59
2022/02/05 03:10:14;;;;;;;14.60;9.30;;;;;;;2.71;55.65;100615.33;117328;1186;21845;-56
2022/02/05 03:12:43;;;;;;;18.30;9.50;;;;;;;2.71;55.65;100615.13;117346;1183;21846;-56
2022/02/05 03:15:19;;;;;;;14.70;9.80;;;;;;;2.71;55.66;100607.16;117295;1182;23964;-56
2022/02/05 03:18:02;;;;;;;19.80;10.40;;;;;;;2.71;55.67;100610.30;117278;1185;21899;-59
2022/02/05 03:20:31;;;;;;;18.10;10.80;;;;;;;2.72;55.81;100605.80;117289;1183;21864;-58
2022/02/05 03:23:02;;;;;;;15.80;10.30;;;;;;;2.72;55.96;100603.38;117288;1185;22159;-59
2022/02/05 03:25:31;;;;;;;22.40;11.80;;;;;;;2.63;55.99;100602.14;117303;1183;23437;-59
2022/02/05 03:28:00;;;;;;;17.60;11.10;;;;;;;2.62;56.15;100603.52;117223;1183;22832;-55
2022/02/05 03:30:28;;;;;;;18.70;10.90;;;;;;;2.63;56.27;100603.36;117255;1185;22975;-59
2022/02/05 03:32:58;;;;;;;17.00;11.40;;;;;;;2.65;55.95;100601.67;117222;1185;22634;-59
2022/02/05 03:35:27;;;;;;;17.20;10.40;;;;;;;2.75;56.08;100599.64;117251;1182;21858;-56
2022/02/05 03:37:55;;;;;;;18.00;11.50;;;;;;;2.78;55.88;100602.66;117301;1188;21854;-56
2022/02/05 03:40:23;;;;;;;20.50;12.20;;;;;;;2.78;55.91;100597.64;117459;1182;21858;-58
2022/02/05 03:42:52;;;;;;;24.20;12.50;;;;;;;2.80;55.93;100597.33;117412;1185;21845;-59
2022/02/05 03:45:20;;;;;;;20.60;12.00;;;;;;;2.80;55.98;100595.78;117397;1185;21854;-56
2022/02/05 03:47:51;;;;;;;22.90;12.00;;;;;;;2.81;55.95;100599.61;117402;1185;21845;-56
2022/02/05 03:50:19;;;;;;;18.80;11.80;;;;;;;2.81;55.91;100602.23;117396;1185;22909;-58
2022/02/05 03:52:47;;;;;;;19.90;11.60;;;;;;;2.82;56.01;100605.54;117293;1185;21855;-56
2022/02/05 03:55:15;;;;;;;19.70;11.50;;;;;;;2.82;55.99;100609.34;117353;1185;22616;-56
2022/02/05 03:57:43;;;;;;;17.70;11.00;;;;;;;2.81;55.83;100609.14;117463;1186;23161;-59
2022/02/05 04:00:13;;;;;;;17.20;10.80;;;;;;;2.79;55.86;100607.54;117445;1182;21851;-56
2022/02/05 04:02:41;;;;;;;18.50;11.00;;;;;;;2.78;55.81;100608.04;117399;1186;21852;-58
2022/02/05 04:05:10;;;;;;;15.50;10.40;;;;;;;2.78;55.86;100608.20;117411;1185;21856;-56
2022/02/05 04:07:42;;;;;;;14.70;10.10;;;;;;;2.75;55.83;100602.92;117351;1185;22001;-55
2022/02/05 04:10:15;;;;;;;16.10;10.30;;;;;;;2.71;55.70;100601.61;117447;1180;21854;-58
2022/02/05 04:18:18;;;;;;;16.50;9.90;;;;;;;2.56;55.70;100598.33;117380;1185;23455;-58
2022/02/05 04:20:48;;;;;;;19.50;8.60;;;;;;;2.54;55.94;100600.02;117383;1183;21856;-59
2022/02/05 04:23:17;;;;;;;16.20;9.80;;;;;;;2.56;55.91;100595.89;117423;1185;21851;-56
2022/02/05 04:25:46;;;;;;;14.20;9.30;;;;;;;2.57;55.93;100596.97;117431;1185;21851;-55
2022/02/05 04:28:14;;;;;;;13.80;8.10;;;;;;;2.59;56.03;100597.70;117460;1185;21854;-55
2022/02/05 04:30:42;;;;;;;17.90;8.80;;;;;;;2.61;55.97;100594.30;117422;1185;22817;-55
2022/02/05 04:33:10;;;;;;;15.60;7.80;;;;;;;2.64;56.06;100591.59;117413;1183;23576;-55
2022/02/05 04:35:43;;;;;;;15.20;8.20;;;;;;;2.68;56.06;100588.73;117344;1185;23541;-57
2022/02/05 04:38:11;;;;;;;11.50;7.40;;;;;;;2.71;56.13;100593.14;117367;1186;21847;-56
2022/02/05 04:40:50;;;;;;;14.80;8.30;;;;;;;2.74;56.24;100593.73;117313;1182;21851;-58
2022/02/05 04:56:50;;;;;;;12.90;7.70;;;;;;;3.02;56.16;100600.26;117390;1185;22999;-55
2022/02/05 05:04:48;;;;;;;16.10;7.90;;;;;;;3.11;56.10;100596.45;117418;1182;21842;-57
2022/02/05 05:10:01;;;;;;;17.20;8.20;;;;;;;3.18;56.37;100596.07;117336;1185;22912;-57
2022/02/05 05:20:32;;;;;;;18.50;8.20;;;;;;;3.27;56.28;100604.79;117422;1180;21853;-55
2022/02/05 05:23:00;;;;;;;20.60;7.90;;;;;;;3.28;56.19;100604.98;117421;1182;24141;-55
2022/02/05 05:25:28;;;;;;;13.40;8.10;;;;;;;3.28;56.13;100603.23;117333;1182;21864;-54
2022/02/05 05:28:06;;;;;;;16.80;8.10;;;;;;;3.29;56.19;100602.39;117327;1182;23456;-58
2022/02/05 05:30:34;;;;;;;17.60;8.50;;;;;;;3.28;56.24;100605.15;117297;1181;21851;-56
2022/02/05 05:33:02;;;;;;;15.80;8.00;;;;;;;3.28;56.17;100606.35;117560;1184;21896;-54
2022/02/05 05:35:30;;;;;;;16.60;8.40;;;;;;;3.29;56.27;100611.73;117341;1186;21862;-55
2022/02/05 05:37:59;;;;;;;12.60;7.80;;;;;;;3.30;56.27;100608.98;117365;1185;21855;-55
2022/02/05 05:40:27;;;;;;;15.20;9.40;;;;;;;3.28;56.17;100609.81;117399;1185;23456;-57
2022/02/05 05:43:05;;;;;;;16.50;9.70;;;;;;;3.28;56.26;100607.91;117458;1185;21841;-55
2022/02/05 05:48:29;;;;;;;16.20;8.90;;;;;;;3.29;56.29;100605.67;117322;1185;21855;-55
2022/02/05 05:50:58;;;;;;;13.60;8.90;;;;;;;3.27;56.31;100608.77;117411;1185;23636;-55
2022/02/05 05:53:27;;;;;;;12.50;8.00;;;;;;;3.30;56.37;100606.06;117337;1188;21894;-56
2022/02/05 05:55:56;;;;;;;17.90;10.10;;;;;;;3.32;56.32;100601.76;117345;1186;22760;-58
2022/02/05 05:58:25;;;;;;;12.30;8.40;;;;;;;3.34;56.40;100600.59;117391;1185;21855;-55
2022/02/05 06:00:55;;;;;;;14.80;8.70;;;;;;;3.34;56.37;100599.38;117342;1185;22156;-56
2022/02/05 06:03:23;;;;;;;13.80;8.70;;;;;;;3.35;56.56;100604.77;117425;1183;22828;-55
2022/02/05 06:05:51;;;;;;;14.20;8.10;;;;;;;3.37;56.33;100599.94;117341;1185;23534;-58
2022/02/05 06:08:19;;;;;;;15.50;8.10;;;;;;;3.38;56.23;100593.19;119422;1185;21762;-55
2022/02/05 06:10:47;;;;;;;13.60;7.50;;;;;;;3.39;56.48;100596.52;119447;1185;21798;-59
2022/02/05 06:13:16;;;;;;;14.80;8.10;;;;;;;3.43;56.42;100603.02;119439;1185;21764;-56
2022/02/05 06:15:45;;;;;;;15.20;7.90;;;;;;;3.47;56.51;100608.64;119490;1185;21799;-58
2022/02/05 06:18:13;;;;;;;12.20;7.80;;;;;;;3.49;56.61;100614.26;119239;1186;22333;-59
2022/02/05 06:20:41;;;;;;;12.50;7.80;;;;;;;3.52;56.40;100615.00;119393;1184;22272;-60
2022/02/05 06:23:11;;;;;;;17.70;8.50;;;;;;;3.55;56.40;100610.02;118514;1185;21865;-55
2022/02/05 06:25:41;;;;;;;13.90;8.60;;;;;;;3.57;56.43;100608.50;117384;1186;21862;-55
2022/02/05 06:28:14;;;;;;;15.90;8.10;;;;;;;3.59;56.41;100606.45;117350;1185;21842;-55
2022/02/05 06:30:42;;;;;;;16.10;8.80;;;;;;;3.60;56.49;100601.95;117335;1182;21898;-58
2022/02/05 06:33:11;;;;;;;13.00;7.90;;;;;;;3.59;56.45;100601.77;117348;1186;23472;-59
2022/02/05 06:35:41;;;;;;;;;;;;;;;3.60;56.50;100599.18;117387;1185;22909;-58
2022/02/05 06:38:10;;;;;;;17.40;7.60;;;;;;;3.61;56.62;100600.60;117394;1185;21854;-59
2022/02/05 06:40:39;;;;;;;16.30;8.80;;;;;;;3.62;56.65;100595.08;117393;1185;23452;-59
2022/02/05 06:43:12;;;;;;;20.50;8.30;;;;;;;3.65;56.78;100586.27;117311;1185;21911;-55
2022/02/05 06:45:40;;;;;;;12.00;7.60;;;;;;;3.72;56.77;100583.98;117427;1186;22953;-55
2022/02/05 06:48:10;;;;;;;12.50;7.60;;;;;;;3.80;56.79;100579.77;117357;1185;21861;-57
2022/02/05 06:50:39;;;;;;;19.40;8.30;;;;;;;3.89;56.70;100580.63;117291;1183;24166;-56
2022/02/05 06:53:07;;;;;;;14.30;7.20;;;;;;;3.96;56.77;100578.34;117366;1186;22529;-58
2022/02/05 06:55:35;;;;;;;21.80;8.70;;;;;;;4.03;56.85;100575.15;117371;1184;23544;-56
2022/02/05 06:58:03;;;;;;;13.00;7.80;;;;;;;4.10;56.68;100570.07;117393;1186;21851;-56
2022/02/05 07:00:32;;;;;;;13.20;7.50;;;;;;;4.15;57.03;100565.98;117405;1183;24151;-58
2022/02/05 07:03:00;;;;;;;14.90;8.10;;;;;;;4.22;56.80;100563.15;117354;1183;22924;-56
2022/02/05 07:05:36;;;;;;;14.90;8.80;;;;;;;4.32;56.81;100552.03;117324;1180;23461;-57
2022/02/05 07:08:05;;;;;;;20.00;8.00;;;;;;;4.40;57.05;100548.84;117359;1185;22802;-55
2022/02/05 07:10:33;;;;;;;12.50;8.00;;;;;;;4.45;57.02;100551.88;117340;1185;24161;-57
2022/02/05 07:15:40;;;;;;;15.10;8.40;;;;;;;4.59;57.12;100571.04;117445;1185;21845;-56
2022/02/05 07:18:17;;;;;;;14.00;8.00;;;;;;;4.65;56.95;100569.73;117357;1185;22986;-56
2022/02/05 07:20:52;;;;;;;11.70;8.00;;;;;;;4.72;57.21;100559.59;117434;1185;22954;-56
2022/02/05 07:29:15;;;;;;;14.20;8.40;;;;;;;4.95;56.75;100543.73;117326;1182;21858;-58
2022/02/05 07:31:53;;;;;;;12.90;7.70;;;;;;;5.01;57.07;100549.36;117328;1185;23667;-55
2022/02/05 07:34:30;;;;;;;18.10;8.10;;;;;;;5.03;57.03;100546.98;117405;1182;22002;-57
2022/02/05 07:37:02;;;;;;;12.20;8.20;;;;;;;5.08;57.00;100550.85;117402;1182;21846;-55
2022/02/05 07:39:41;;;;;;;13.60;7.80;;;;;;;5.11;57.00;100550.70;117308;1185;23218;-58
2022/02/05 07:42:12;;;;;;;11.70;7.50;;;;;;;5.12;56.74;100544.11;117402;1185;23625;-56
2022/02/05 07:44:42;;;;;;;16.20;8.90;;;;;;;5.07;56.63;100536.59;117299;1186;21971;-56
2022/02/05 07:47:11;;;;;;;14.70;8.30;;;;;;;5.01;57.04;100534.06;117334;1186;23587;-58
2022/02/05 07:49:42;;;;;;;11.20;6.80;;;;;;;4.98;56.93;100538.90;117304;1185;24136;-57
2022/02/05 07:52:11;;;;;;;12.90;7.80;;;;;;;4.96;57.05;100542.69;117377;1185;23592;-57
2022/02/05 07:54:39;;;;;;;13.70;8.10;;;;;;;4.96;56.81;100547.23;117263;1186;24132;-55
2022/02/05 07:57:07;;;;;;;13.40;7.90;;;;;;;5.00;56.96;100542.59;117334;1186;23609;-57
2022/02/05 07:59:36;;;;;;;12.90;7.30;;;;;;;5.06;56.92;100541.45;117298;1185;23556;-55
2022/02/05 08:02:04;;;;;;;17.40;8.90;;;;;;;5.09;56.96;100535.90;117392;1185;21845;-55
2022/02/05 08:04:33;;;;;;;13.80;7.60;;;;;;;5.12;56.99;100531.59;117330;1183;23431;-57
2022/02/05 08:07:04;;;;;;;13.90;7.90;;;;;;;5.15;57.03;100523.46;117385;1182;23430;-57
2022/02/05 08:09:49;;;;;;;13.10;7.30;;;;;;;5.19;56.91;100526.45;117310;1185;21906;-56
2022/02/05 08:12:18;;;;;;;11.30;7.00;;;;;;;5.20;56.84;100524.55;117350;1180;21859;-58
2022/02/05 08:14:50;;;;;;;18.40;8.00;;;;;;;5.21;57.05;100526.85;117462;1185;21970;-55
2022/02/05 08:17:27;;;;;;;17.70;8.10;;;;;;;5.24;57.05;100523.55;117338;1186;23667;-58
2022/02/05 08:19:55;;;;;;;15.60;8.50;;;;;;;5.23;56.82;100520.59;117318;1188;24143;-58
2022/02/05 08:22:27;;;;;;;18.00;8.80;;;;;;;5.20;56.85;100519.17;117281;1186;23547;-55
2022/02/05 08:24:58;;;;;;;16.20;8.10;;;;;;;5.18;56.82;100517.58;117309;1185;23483;-55
2022/02/05 08:27:26;;;;;;;14.00;7.80;;;;;;;5.17;56.86;100518.95;117196;1183;24142;-55
2022/02/05 08:30:00;;;;;;;16.50;8.80;;;;;;;5.16;56.82;100516.33;117276;1182;23612;-58
2022/02/05 08:32:29;;;;;;;12.50;7.70;;;;;;;5.16;56.90;100512.50;117656;1182;21866;-56
2022/02/05 08:34:59;;;;;;;12.60;7.80;;;;;;;5.16;57.08;100518.08;119331;1185;21804;-59
2022/02/05 08:37:29;;;;;;;;;;;;;;;5.15;56.86;100523.96;119462;1185;22222;-59
2022/02/05 08:39:58;;;;;;;16.40;8.50;;;;;;;5.14;56.96;100525.70;119469;1185;21799;-59
2022/02/05 08:42:26;;;;;;;13.80;8.60;;;;;;;5.18;57.05;100529.73;119461;1185;21845;-56
2022/02/05 08:44:54;;;;;;;18.20;9.30;;;;;;;5.22;56.94;100531.71;119377;1185;21752;-59
2022/02/05 08:47:22;;;;;;;18.30;8.20;;;;;;;5.26;56.85;100530.72;118439;1186;21852;-58
2022/02/05 08:49:52;;;;;;;16.20;8.70;;;;;;;5.31;57.07;100534.42;117311;1183;24170;-59
2022/02/05 08:52:21;;;;;;;13.60;8.00;;;;;;;5.33;57.17;100537.23;117282;1186;23300;-59
2022/02/05 08:54:49;;;;;;;17.20;9.10;;;;;;;5.35;56.94;100536.23;117338;1182;22671;-59
2022/02/05 08:57:17;;;;;;;15.80;8.20;;;;;;;5.36;56.99;100536.40;117322;1186;23592;-60
2022/02/05 09:02:27;;;;;;;15.40;7.90;;;;;;;5.44;57.27;100539.11;117400;1182;22643;-58
2022/02/05 09:05:08;;;;;;;14.30;8.40;;;;;;;5.47;57.00;100533.92;117339;1185;23556;-60
2022/02/05 09:07:37;;;;;;;13.80;8.50;;;;;;;5.52;57.01;100531.36;117314;1186;23450;-59
2022/02/05 09:10:58;;;;;;;14.70;9.00;;;;;;;5.57;57.01;100526.88;117272;1186;21864;-58
2022/02/05 09:13:10;;;;;;;13.50;9.00;;;;;;;5.60;57.03;100518.90;117201;1186;22642;-58
2022/02/05 09:15:44;;;;;;;16.50;8.80;;;;;;;5.63;57.30;100511.80;117514;1183;21855;-56
2022/02/05 09:18:13;;;;;;;15.00;8.90;;;;;;;5.66;57.08;100501.21;117422;1186;23632;-58
2022/02/05 09:20:41;;;;;;;16.90;8.50;;;;;;;5.68;57.20;100495.48;117406;1186;23475;-56
2022/02/05 09:23:09;;;;;;;13.00;8.30;;;;;;;5.72;57.31;100494.14;117358;1182;21867;-56
2022/02/05 09:25:41;;;;;;;13.90;8.60;;;;;;;5.76;57.35;100497.13;117301;1181;21883;-58
2022/02/05 09:28:15;;;;;;;14.40;8.40;;;;;;;5.80;57.26;100501.86;117344;1183;21863;-58
2022/02/05 09:30:49;;;;;;;14.90;8.60;;;;;;;5.81;57.34;100500.30;117257;1185;21984;-55
2022/02/05 09:33:18;;;;;;;16.60;8.60;;;;;;;5.82;57.26;100507.11;117462;1185;21855;-56
2022/02/05 09:35:46;;;;;;;14.90;7.90;;;;;;;5.83;57.38;100509.38;117407;1183;21863;-55
2022/02/05 09:38:14;;;;;;;19.00;9.10;;;;;;;5.85;57.56;100501.39;117363;1182;21996;-57
2022/02/05 09:40:43;;;;;;;14.70;9.20;;;;;;;5.88;57.50;100495.67;117365;1183;23587;-58
2022/02/05 09:43:12;;;;;;;13.30;8.70;;;;;;;5.91;57.37;100492.39;117367;1186;23512;-56
2022/02/05 09:45:40;;;;;;;15.10;9.30;;;;;;;5.93;57.32;100491.19;117350;1186;21858;-57
2022/02/05 09:48:09;;;;;;;14.10;7.90;;;;;;;5.94;57.26;100492.42;117354;1182;23579;-55
2022/02/05 09:50:37;;;;;;;15.80;9.60;;;;;;;5.93;57.44;100486.49;117348;1183;24335;-58
2022/02/05 09:53:14;;;;;;;16.70;9.30;;;;;;;5.92;57.32;100476.39;117433;1185;24285;-59
2022/02/05 09:55:43;;;;;;;15.40;9.50;;;;;;;5.92;57.35;100472.71;117400;1185;23436;-55
2022/02/05 09:58:13;;;;;;;19.70;9.60;;;;;;;5.93;57.18;100472.03;117391;1189;21944;-56
2022/02/05 10:00:41;;;;;;;15.70;9.20;;;;;;;5.94;57.59;100479.70;117312;1186;22767;-59
2022/02/05 10:03:31;;;;;;;16.70;10.10;;;;;;;5.96;57.39;100468.39;117269;1186;22893;-55
2022/02/05 10:06:10;;;;;;;15.30;9.20;;;;;;;6.00;57.51;100462.52;117355;1185;21883;-56
2022/02/05 10:08:46;;;;;;;15.00;9.10;;;;;;;6.03;57.37;100452.97;117314;1182;22234;-56
2022/02/05 10:11:14;;;;;;;15.70;10.50;;;;;;;6.08;57.51;100447.62;117313;1186;22900;-58
2022/02/05 10:13:43;;;;;;;17.40;9.80;;;;;;;6.12;57.54;100450.60;117316;1186;21857;-58
2022/02/05 10:16:11;;;;;;;17.00;10.00;;;;;;;6.14;57.43;100453.23;117364;1185;22902;-55
2022/02/05 10:18:43;;;;;;;19.40;9.70;;;;;;;6.16;57.57;100443.14;117364;1183;24145;-55
2022/02/05 10:21:28;;;;;;;18.00;10.70;;;;;;;6.19;57.58;100440.02;117246;1186;22086;-58
2022/02/05 10:23:57;;;;;;;13.50;8.80;;;;;;;6.24;57.60;100440.23;117383;1186;21870;-59
2022/02/05 10:26:36;;;;;;;13.80;9.00;;;;;;;6.29;57.51;100438.17;117362;1185;23523;-58
2022/02/05 10:29:05;;;;;;;17.60;10.40;;;;;;;6.32;57.50;100432.97;117333;1186;23469;-56
2022/02/05 10:31:52;;;;;;;15.20;9.70;;;;;;;6.34;57.45;100428.10;117284;1183;21854;-58
2022/02/05 10:34:21;;;;;;;18.60;10.10;;;;;;;6.37;57.33;100428.47;117377;1183;24203;-58
2022/02/05 10:37:13;;;;;;;17.70;10.80;;;;;;;6.39;57.36;100434.05;117376;1185;21847;-60
2022/02/05 10:40:06;;;;;;;17.80;10.80;;;;;;;6.43;57.51;100432.49;117304;1185;22179;-58
2022/02/05 10:45:26;;;;;;;18.20;10.80;;;;;;;6.53;57.53;100436.57;117190;1189;23560;-58
2022/02/05 10:47:58;;;;;;;19.70;11.20;;;;;;;6.56;57.75;100436.93;117164;1186;24257;-55
2022/02/05 10:50:28;;;;;;;19.90;12.00;;;;;;;6.60;57.54;100432.07;117360;1183;21855;-56
2022/02/05 10:53:02;;;;;;;17.20;10.10;;;;;;;6.61;57.37;100434.17;117382;1186;21864;-59
2022/02/05 10:58:29;;;;;;;15.40;10.10;;;;;;;6.64;57.60;100431.21;117377;1186;21857;-55
2022/02/05 11:07:09;;;;;;;22.00;14.30;;;;;;;6.67;57.58;100425.30;117393;1186;24171;-59
2022/02/05 11:09:38;;;;;;;20.90;12.90;;;;;;;6.71;57.48;100423.73;117351;1182;21861;-55
2022/02/05 11:20:12;;;;;;;18.70;13.40;;;;;;;6.90;57.68;100412.13;117336;1180;21861;-56
2022/02/05 11:22:43;;;;;;;18.50;12.80;;;;;;;6.92;57.66;100409.52;117319;1186;21857;-58
2022/02/05 11:25:12;;;;;;;20.00;12.30;;;;;;;6.93;57.68;100408.65;117375;1186;23432;-56
2022/02/05 11:27:47;;;;;;;14.90;10.50;;;;;;;6.94;57.38;100400.98;117384;1186;22886;-56
2022/02/05 11:30:27;;;;;;;15.80;10.40;;;;;;;6.96;57.60;100395.05;117353;1182;21864;-58
2022/02/05 11:33:03;;;;;;;16.70;11.10;;;;;;;6.96;57.49;100388.94;117327;1186;21851;-56
2022/02/05 11:36:19;;;;;;;16.30;10.10;;;;;;;6.93;57.68;100381.79;117364;1185;21982;-58
2022/02/05 11:38:32;;;;;;;16.60;10.30;;;;;;;6.93;57.58;100380.38;117377;1186;23458;-59
2022/02/05 11:41:02;;;;;;;15.90;10.20;;;;;;;6.91;57.40;100374.45;117378;1186;22909;-59
2022/02/05 11:43:31;;;;;;;16.30;10.10;;;;;;;6.91;57.59;100370.44;117419;1186;23864;-56
2022/02/05 11:46:03;;;;;;;15.80;10.90;;;;;;;6.92;57.51;100363.98;117384;1183;22917;-55
2022/02/05 11:48:43;;;;;;;16.60;10.70;;;;;;;6.93;57.46;100366.79;117385;1186;24136;-57
2022/02/05 11:51:15;;;;;;;17.00;12.00;;;;;;;6.94;57.74;100372.02;117392;1176;23197;-56
2022/02/05 11:53:56;;;;;;;17.20;12.50;;;;;;;6.95;57.44;100374.81;117302;1182;24177;-58
2022/02/05 11:57:01;;;;;;;16.40;11.20;;;;;;;6.97;57.64;100373.42;117399;1183;24149;-56
2022/02/05 11:59:49;;;;;;;14.60;10.70;;;;;;;7.01;57.57;100368.89;117378;1176;21940;-59
2022/02/05 12:02:20;;;;;;;24.60;13.90;;;;;;;7.04;57.64;100366.29;117303;1185;24162;-58
2022/02/05 12:05:18;;;;;;;16.50;11.00;;;;;;;7.06;57.75;100358.96;117206;1185;23429;-56
2022/02/05 12:08:05;;;;;;;21.80;12.20;;;;;;;7.11;57.51;100363.15;119005;1185;23435;-59
2022/02/05 12:10:41;;;;;;;13.80;9.70;;;;;;;7.15;57.67;100360.37;117338;1186;21884;-58
2022/02/05 12:13:16;;;;;;;14.00;10.40;;;;;;;7.18;57.42;100364.39;117776;1183;22907;-58
2022/02/05 12:15:46;;;;;;;15.90;10.30;;;;;;;7.22;57.44;100366.48;117357;1184;21855;-58
2022/02/05 12:18:24;;;;;;;13.40;10.00;;;;;;;7.23;57.46;100362.48;117372;1189;21864;-59
2022/02/05 12:21:13;;;;;;;13.50;9.50;;;;;;;7.26;57.59;100357.06;117370;1185;23445;-58
2022/02/05 12:26:29;;;;;;;15.10;10.80;;;;;;;7.25;57.32;100354.29;117398;1189;22915;-58
2022/02/05 12:29:01;;;;;;;30.90;13.10;;;;;;;7.24;57.33;100354.10;117306;1188;22946;-58
2022/02/05 12:31:36;;;;;;;19.50;13.50;;;;;;;7.24;57.38;100349.91;117434;1186;21858;-59
2022/02/05 12:34:13;;;;;;;14.20;10.70;;;;;;;7.23;57.26;100346.08;117383;1182;24409;-57
2022/02/05 12:36:43;;;;;;;12.80;9.70;;;;;;;7.23;57.32;100340.65;117332;1176;21848;-59
2022/02/05 12:39:13;;;;;;;13.90;10.00;;;;;;;7.26;57.17;100341.02;119432;1185;21687;-57
2022/02/05 12:41:50;;;;;;;13.80;9.90;;;;;;;7.31;57.24;100342.05;119372;1182;21876;-59
2022/02/05 12:44:22;;;;;;;12.80;9.30;;;;;;;7.40;57.46;100343.46;119409;1185;21835;-58
2022/02/05 12:46:53;;;;;;;14.10;9.70;;;;;;;7.45;57.30;100344.52;119410;1185;21762;-58
2022/02/05 12:49:28;;;;;;;15.00;9.30;;;;;;;7.49;57.24;100339.63;119226;1186;22308;-59
2022/02/05 12:51:58;;;;;;;13.50;9.70;;;;;;;7.56;57.28;100340.14;119416;1185;21783;-59
2022/02/05 12:54:28;;;;;;;13.70;9.40;;;;;;;7.61;57.23;100335.23;117810;1185;22882;-57
2022/02/05 12:56:59;;;;;;;14.40;9.30;;;;;;;7.71;57.23;100332.96;117379;1186;21841;-58
2022/02/05 12:59:31;;;;;;;;;;;;;;;7.81;57.41;100331.55;117347;1183;21872;-59
2022/02/05 13:02:01;;;;;;;14.80;9.70;;;;;;;7.92;57.35;100328.05;117383;1181;22642;-56
2022/02/05 13:04:36;;;;;;;15.70;10.60;;;;;;;7.99;57.30;100328.19;117369;1186;24152;-58
2022/02/05 13:07:06;;;;;;;16.40;10.30;;;;;;;8.09;57.47;100330.80;117299;1185;22841;-59
2022/02/05 13:09:49;;;;;;;14.60;9.90;;;;;;;8.18;57.46;100332.14;117366;1186;21935;-59
2022/02/05 13:12:23;;;;;;;20.80;14.70;;;;;;;8.19;57.13;100325.69;117369;1183;23459;-56
2022/02/05 13:14:56;;;;;;;15.50;11.10;;;;;;;8.15;57.21;100325.19;117239;1186;22429;-58
2022/02/05 13:17:42;;;;;;;15.90;10.80;;;;;;;8.15;57.07;100327.27;117324;1182;22911;-59
2022/02/05 13:36:49;;;;;;;11.30;7.60;;;;;;;7.98;56.64;100310.20;117329;1186;23468;-59
2022/02/05 13:42:07;;;;;;;11.40;7.70;;;;;;;7.74;56.52;100301.87;117407;1186;22166;-58
2022/02/05 13:45:09;;;;;;;14.20;8.30;;;;;;;7.62;56.22;100297.87;117352;1186;23073;-58
2022/02/05 13:47:45;;;;;;;12.80;8.20;;;;;;;7.56;56.28;100298.39;117358;1186;21858;-59
2022/02/05 13:50:26;;;;;;;11.40;8.50;;;;;;;7.53;56.23;100297.88;117441;1180;21864;-59
2022/02/05 13:52:58;;;;;;;25.60;9.20;;;;;;;7.43;56.26;100295.98;117355;1182;23548;-59
2022/02/05 13:55:31;;;;;;;11.50;7.90;;;;;;;7.36;56.36;100291.09;117352;1185;21850;-59
2022/02/05 13:58:07;;;;;;;15.50;8.20;;;;;;;7.33;56.55;100292.83;117349;1181;21853;-56
2022/02/05 14:00:45;;;;;;;11.50;8.40;;;;;;;7.28;56.57;100292.85;117392;1183;21931;-57
2022/02/05 14:03:36;;;;;;;118.00;88.90;;;;;;;7.23;56.43;100293.73;117366;1186;21857;-59
2022/02/05 14:06:14;;;;;;;25.80;18.70;;;;;;;7.30;56.72;100293.17;117315;1186;23061;-57
2022/02/05 14:08:45;;;;;;;17.20;12.10;;;;;;;7.28;56.48;100301.39;117353;1182;23471;-59
2022/02/05 14:11:15;;;;;;;16.00;11.00;;;;;;;7.19;56.34;100302.27;117213;1185;23469;-57
2022/02/05 14:13:43;;;;;;;14.00;10.10;;;;;;;7.02;56.13;100298.59;117373;1186;21864;-59
2022/02/05 14:16:12;;;;;;;13.80;9.50;;;;;;;6.82;56.17;100304.48;117215;1187;23464;-56
2022/02/05 14:18:56;;;;;;;14.10;9.70;;;;;;;6.68;56.07;100303.23;117308;1185;22908;-59
2022/02/05 14:21:39;;;;;;;11.20;8.40;;;;;;;6.56;56.24;100306.70;117350;1183;21940;-57
2022/02/05 14:24:28;;;;;;;14.70;10.00;;;;;;;6.54;56.23;100315.41;117436;1183;21853;-59
2022/02/05 14:27:12;;;;;;;14.60;9.50;;;;;;;6.49;56.05;100317.83;117336;1185;22617;-59
2022/02/05 14:35:12;;;;;;;35.50;20.90;;;;;;;6.27;56.20;100333.07;117379;1186;21851;-59
2022/02/05 14:40:43;;;;;;;50.40;30.40;;;;;;;6.15;56.01;100334.59;117400;1180;21860;-59
2022/02/05 14:43:12;;;;;;;58.70;36.40;;;;;;;6.13;56.02;100333.89;117389;1186;22952;-59
2022/02/05 14:45:40;;;;;;;44.10;26.00;;;;;;;6.13;56.08;100335.80;117429;1182;21855;-58
2022/02/05 14:48:08;;;;;;;37.70;20.20;;;;;;;6.12;56.06;100334.22;117415;1182;23442;-58